createdAt,value
2023-05-14T03:38:13.278Z,100613.86
2023-05-14T03:39:13.429Z,100615.03
2023-05-14T03:40:14.025Z,100614.64
2023-05-14T03:41:14.599Z,100613.17
2023-05-14T03:42:15.236Z,100610.73
2023-05-14T03:43:17.101Z,100608.66
2023-05-14T03:44:16.695Z,100606.26
2023-05-14T03:45:17.596Z,100603.94
2023-05-14T03:46:18.217Z,100601.67
2023-05-14T03:47:18.285Z,100599.44
2023-05-14T03:48:19.031Z,100597.13
2023-05-14T03:49:19.847Z,100595.42
2023-05-14T03:50:20.410Z,100593.23
2023-05-14T03:51:20.455Z,100590.58
2023-05-14T03:52:21.002Z,100588.31
2023-05-14T03:53:21.149Z,100586.53
2023-05-14T03:54:21.644Z,100584.71
2023-05-14T03:55:22.219Z,100582.53
2023-05-14T03:56:22.831Z,100580.88
2023-05-14T03:57:23.377Z,100578.87
2023-05-14T03:58:23.933Z,100577.10
2023-05-14T03:59:24.530Z,100575.20
2023-05-14T04:00:25.474Z,100574.16
2023-05-14T04:01:25.604Z,100572.47
2023-05-14T04:02:26.304Z,100570.87
2023-05-14T04:03:26.935Z,100569.02
2023-05-14T04:04:27.511Z,100567.92
2023-05-14T04:05:28.038Z,100566.58
2023-05-14T04:06:28.570Z,100564.94
2023-05-14T04:07:29.220Z,100563.88
2023-05-14T04:08:29.845Z,100562.63
2023-05-14T04:08:38.590Z,100569.92
2023-05-14T04:09:39.239Z,100569.42
2023-05-14T04:10:39.810Z,100568.07
2023-05-14T04:11:40.319Z,100566.77
2023-05-14T04:12:40.968Z,100565.67
2023-05-14T04:13:41.496Z,100564.41
2023-05-14T04:14:42.087Z,100562.98
2023-05-14T04:15:42.660Z,100561.80
2023-05-14T04:16:43.259Z,100561.05
2023-05-14T04:17:43.833Z,100559.62
2023-05-14T04:18:44.435Z,100558.41
2023-05-14T04:19:45.121Z,100557.05
2023-05-14T04:20:45.941Z,100555.59
2023-05-14T04:21:46.567Z,100554.58
2023-05-14T04:22:47.083Z,100553.27
2023-05-14T04:23:47.137Z,100552.39
2023-05-14T04:24:47.726Z,100550.97
2023-05-14T04:25:48.262Z,100550.25
2023-05-14T04:26:48.769Z,100549.33
2023-05-14T04:27:49.416Z,100548.48
2023-05-14T04:28:50.006Z,100547.64
2023-05-14T04:29:50.685Z,100547.31
2023-05-14T04:30:51.242Z,100546.72
2023-05-14T04:31:51.911Z,100545.75
2023-05-14T04:32:52.488Z,100545.50
2023-05-14T04:33:53.260Z,100544.92
2023-05-14T04:34:54.051Z,100544.80
2023-05-14T04:35:54.702Z,100544.00
2023-05-14T04:36:55.233Z,100543.00
2023-05-14T04:37:55.840Z,100542.20
2023-05-14T04:38:56.510Z,100541.57
2023-05-14T04:39:57.097Z,100541.48
2023-05-14T04:40:05.811Z,100548.86
2023-05-14T04:41:06.590Z,100548.47
2023-05-14T04:42:07.117Z,100547.17
2023-05-14T04:43:07.762Z,100546.11
2023-05-14T04:44:08.378Z,100545.06
2023-05-14T04:45:09.074Z,100544.53
2023-05-14T04:46:09.736Z,100544.56
2023-05-14T04:47:10.647Z,100544.44
2023-05-14T04:48:11.575Z,100544.90
2023-05-14T04:49:12.177Z,100546.03
2023-05-14T04:50:12.776Z,100546.29
2023-05-14T04:51:13.356Z,100547.84
2023-05-14T04:52:13.915Z,100549.06
2023-05-14T04:53:14.603Z,100549.98
2023-05-14T04:54:15.320Z,100550.78
2023-05-14T04:55:15.887Z,100551.54
2023-05-14T04:56:16.412Z,100553.09
2023-05-14T04:57:17.060Z,100554.62
2023-05-14T04:58:17.574Z,100555.29
2023-05-14T04:59:18.252Z,100556.47
2023-05-14T05:00:18.937Z,100557.56
2023-05-14T05:01:19.517Z,100558.82
2023-05-14T05:02:20.138Z,100560.17
2023-05-14T05:03:20.908Z,100561.14
2023-05-14T05:04:20.837Z,100562.10
2023-05-14T05:05:21.560Z,100563.28
2023-05-14T05:06:22.153Z,100564.21
2023-05-14T05:07:23.131Z,100566.31
2023-05-14T05:08:23.696Z,100567.50
2023-05-14T05:09:24.413Z,100568.59
2023-05-14T05:10:25.418Z,100569.64
2023-05-14T05:11:25.970Z,100570.78
2023-05-14T05:12:26.561Z,100571.59
2023-05-14T05:12:35.272Z,100602.81
2023-05-14T05:13:35.953Z,100602.30
2023-05-14T05:14:36.506Z,100600.20
2023-05-14T05:15:36.527Z,100598.68
2023-05-14T05:16:37.136Z,100597.30
2023-05-14T05:17:37.735Z,100596.25
2023-05-14T05:18:38.309Z,100595.48
2023-05-14T05:19:43.895Z,100594.81
2023-05-14T05:20:39.654Z,100594.77
2023-05-14T05:21:40.510Z,100594.31
2023-05-14T05:22:41.125Z,100594.11
2023-05-14T05:23:41.721Z,100594.23
2023-05-14T05:24:42.376Z,100594.20
2023-05-14T05:25:43.084Z,100593.65
2023-05-14T05:26:43.692Z,100594.08
2023-05-14T05:27:44.360Z,100594.38
2023-05-14T05:28:45.093Z,100595.30
2023-05-14T05:29:45.860Z,100595.76
2023-05-14T05:30:46.054Z,100596.61
2023-05-14T05:31:46.160Z,100597.58
2023-05-14T05:32:46.805Z,100598.80
2023-05-14T05:33:47.310Z,100599.98
2023-05-14T05:34:47.962Z,100601.12
2023-05-14T05:35:48.597Z,100602.84
2023-05-14T05:36:49.273Z,100604.66
2023-05-14T05:37:49.949Z,100606.59
2023-05-14T05:38:50.508Z,100608.04
2023-05-14T05:39:51.238Z,100609.43
2023-05-14T05:40:51.391Z,100611.08
2023-05-14T05:41:52.084Z,100612.38
2023-05-14T05:42:52.222Z,100613.65
2023-05-14T05:43:52.554Z,100615.12
2023-05-14T05:44:53.146Z,100616.64
2023-05-14T05:45:03.888Z,100656.16
2023-05-14T05:46:04.464Z,100655.58
2023-05-14T05:47:05.258Z,100655.32
2023-05-14T05:48:05.700Z,100654.30
2023-05-14T05:49:06.277Z,100653.42
2023-05-14T05:50:06.920Z,100653.34
2023-05-14T05:51:07.546Z,100652.92
2023-05-14T05:52:08.259Z,100653.26
2023-05-14T05:53:08.878Z,100653.09
2023-05-14T05:54:09.480Z,100653.81
2023-05-14T05:55:10.508Z,100654.56
2023-05-14T05:56:11.072Z,100655.54
2023-05-14T05:57:11.816Z,100656.30
2023-05-14T05:58:12.461Z,100657.90
2023-05-14T05:59:13.401Z,100658.82
2023-05-14T06:00:14.129Z,100660.67
2023-05-14T06:01:14.831Z,100662.45
2023-05-14T06:02:15.651Z,100664.73
2023-05-14T06:03:16.532Z,100667.13
2023-05-14T06:04:17.186Z,100670.28
2023-05-14T06:05:17.919Z,100673.52
2023-05-14T06:06:18.452Z,100676.05
2023-05-14T06:07:19.141Z,100678.23
2023-05-14T06:08:19.721Z,100680.25
2023-05-14T06:09:20.269Z,100682.02
2023-05-14T06:10:21.107Z,100683.33
2023-05-14T06:11:21.713Z,100684.71
2023-05-14T06:12:22.330Z,100685.68
2023-05-14T06:13:22.951Z,100686.78
2023-05-14T06:14:23.638Z,100687.95
2023-05-14T06:15:24.219Z,100689.13
2023-05-14T06:16:24.870Z,100690.31
2023-05-14T06:17:25.196Z,100691.33
2023-05-14T06:17:33.845Z,100721.31
2023-05-14T06:18:34.497Z,100720.64
2023-05-14T06:19:35.332Z,100719.28
2023-05-14T06:20:36.098Z,100717.81
2023-05-14T06:21:36.730Z,100717.30
2023-05-14T06:22:37.453Z,100716.17
2023-05-14T06:23:38.169Z,100714.70
2023-05-14T06:24:38.801Z,100713.61
2023-05-14T06:25:38.917Z,100712.35
2023-05-14T06:26:39.366Z,100712.39
2023-05-14T06:27:40.238Z,100712.61
2023-05-14T06:28:41.172Z,100712.44
2023-05-14T06:29:42.125Z,100712.36
2023-05-14T06:30:42.677Z,100712.23
2023-05-14T06:31:43.702Z,100712.53
2023-05-14T06:32:44.375Z,100713.97
2023-05-14T06:33:45.074Z,100714.69
2023-05-14T06:34:45.724Z,100715.88
2023-05-14T06:35:46.342Z,100716.97
2023-05-14T06:36:46.933Z,100717.95
2023-05-14T06:37:47.548Z,100719.01
2023-05-14T06:38:48.169Z,100719.73
2023-05-14T06:39:48.816Z,100720.36
2023-05-14T06:40:49.448Z,100721.76
2023-05-14T06:41:49.692Z,100722.56
2023-05-14T06:42:50.433Z,100724.08
2023-05-14T06:43:51.097Z,100725.61
2023-05-14T06:44:51.170Z,100727.33
2023-05-14T06:45:51.766Z,100729.03
2023-05-14T06:46:52.368Z,100731.09
2023-05-14T06:47:53.093Z,100733.28
2023-05-14T06:48:53.680Z,100735.52
2023-05-14T06:49:54.227Z,100737.42
2023-05-14T06:50:54.845Z,100739.74
2023-05-14T06:51:04.081Z,100778.08
2023-05-14T06:52:04.691Z,100777.73
2023-05-14T06:53:05.660Z,100776.47
2023-05-14T06:54:06.254Z,100774.91
2023-05-14T06:55:07.007Z,100774.27
2023-05-14T06:56:07.702Z,100773.72
2023-05-14T06:57:08.266Z,100773.22
2023-05-14T06:58:09.187Z,100773.17
2023-05-14T06:59:09.640Z,100772.59
2023-05-14T07:00:10.477Z,100772.17
2023-05-14T07:01:11.366Z,100772.25
2023-05-14T07:02:11.892Z,100772.24
2023-05-14T07:03:12.517Z,100772.75
2023-05-14T07:04:12.671Z,100773.22
2023-05-14T07:05:13.500Z,100773.81
2023-05-14T07:06:14.143Z,100775.07
2023-05-14T07:07:14.675Z,100776.25
2023-05-14T07:08:15.371Z,100777.25
2023-05-14T07:09:16.246Z,100778.65
2023-05-14T07:10:16.879Z,100780.67
2023-05-14T07:11:17.832Z,100782.45
2023-05-14T07:12:18.511Z,100784.89
2023-05-14T07:13:19.184Z,100787.34
2023-05-14T07:14:19.822Z,100789.58
2023-05-14T07:15:20.529Z,100792.28
2023-05-14T07:16:21.105Z,100794.97
2023-05-14T07:17:21.822Z,100798.31
2023-05-14T07:18:22.467Z,100801.77
2023-05-14T07:19:23.074Z,100805.02
2023-05-14T07:20:24.307Z,100808.70
2023-05-14T07:21:24.627Z,100812.48
2023-05-14T07:22:25.352Z,100816.16
2023-05-14T07:22:34.813Z,100890.27
2023-05-14T07:23:35.155Z,100889.67
2023-05-14T07:24:35.787Z,100889.42
2023-05-14T07:25:36.298Z,100889.50
2023-05-14T07:26:37.091Z,100889.13
2023-05-14T07:27:37.780Z,100889.29
2023-05-14T07:28:37.787Z,100890.05
2023-05-14T07:29:38.280Z,100890.89
2023-05-14T07:30:39.952Z,100892.13
2023-05-14T07:31:39.557Z,100894.06
2023-05-14T07:32:40.149Z,100895.41
2023-05-14T07:33:40.701Z,100897.78
2023-05-14T07:34:41.236Z,100899.85
2023-05-14T07:35:41.803Z,100901.59
2023-05-14T07:36:42.354Z,100903.61
2023-05-14T07:37:42.988Z,100905.22
2023-05-14T07:38:43.615Z,100907.55
2023-05-14T07:39:44.191Z,100909.28
2023-05-14T07:40:44.723Z,100911.27
2023-05-14T07:41:45.698Z,100914.01
2023-05-14T07:42:46.270Z,100916.54
2023-05-14T07:43:46.860Z,100918.31
2023-05-14T07:44:47.419Z,100921.31
2023-05-14T07:45:48.984Z,100923.43
2023-05-14T07:46:48.610Z,100925.08
2023-05-14T07:47:49.326Z,100926.77
2023-05-14T07:48:49.778Z,100928.83
2023-05-14T07:49:50.387Z,100930.95
2023-05-14T07:50:50.997Z,100932.21
2023-05-14T07:51:51.585Z,100933.05
2023-05-14T07:52:53.248Z,100935.16
2023-05-14T07:53:52.427Z,100936.69
2023-05-14T07:54:02.023Z,100976.39
2023-05-14T07:55:02.566Z,100976.05
2023-05-14T07:56:03.254Z,100975.37
2023-05-14T07:57:03.916Z,100974.98
2023-05-14T07:58:04.515Z,100975.38
2023-05-14T07:59:05.245Z,100976.34
2023-05-14T08:00:05.699Z,100977.31
2023-05-14T08:01:06.292Z,100978.45
2023-05-14T08:02:07.201Z,100979.75
2023-05-14T08:03:07.981Z,100981.53
2023-05-14T08:04:08.652Z,100983.05
2023-05-14T08:05:09.081Z,100984.73
2023-05-14T08:06:09.598Z,100986.75
2023-05-14T08:07:10.218Z,100988.27
2023-05-14T08:08:10.814Z,100989.95
2023-05-14T08:09:11.389Z,100991.03
2023-05-14T08:10:11.982Z,100992.63
2023-05-14T08:11:12.586Z,100994.69
2023-05-14T08:12:13.530Z,100996.19
2023-05-14T08:13:14.156Z,100998.81
2023-05-14T08:14:14.824Z,101001.81
2023-05-14T08:15:15.543Z,101005.64
2023-05-14T08:16:16.105Z,101009.98
2023-05-14T08:17:17.142Z,101015.32
2023-05-14T08:18:17.623Z,101021.20
2023-05-14T08:19:19.689Z,101027.53
2023-05-14T08:20:19.296Z,101034.25
2023-05-14T08:21:19.912Z,101040.92
2023-05-14T08:22:20.528Z,101047.71
2023-05-14T08:23:21.076Z,101055.35
2023-05-14T08:24:21.676Z,101062.83
2023-05-14T08:25:22.297Z,101070.89
2023-05-14T08:26:23.201Z,101078.73
2023-05-14T08:26:31.890Z,101213.94
2023-05-14T08:27:32.558Z,101212.67
2023-05-14T08:28:33.086Z,101213.34
2023-05-14T08:29:33.633Z,101214.70
2023-05-14T08:30:33.695Z,101215.92
2023-05-14T08:31:34.134Z,101217.94
2023-05-14T08:32:34.763Z,101219.87
2023-05-14T08:33:35.436Z,101221.33
2023-05-14T08:34:36.103Z,101223.05
2023-05-14T08:35:36.620Z,101225.70
2023-05-14T08:36:37.180Z,101229.32
2023-05-14T08:37:38.091Z,101232.27
2023-05-14T08:38:38.624Z,101236.62
2023-05-14T08:39:39.263Z,101241.81
2023-05-14T08:40:39.825Z,101246.04
2023-05-14T08:41:40.430Z,101250.36
2023-05-14T08:42:41.032Z,101253.89
2023-05-14T08:43:41.439Z,101257.91
2023-05-14T08:44:42.083Z,101261.47
2023-05-14T08:45:42.748Z,101265.52
2023-05-14T08:46:42.798Z,101268.92
2023-05-14T08:47:43.429Z,101272.70
2023-05-14T08:48:44.014Z,101276.70
2023-05-14T08:49:44.593Z,101280.97
2023-05-14T08:50:45.156Z,101285.47
2023-05-14T08:51:45.723Z,101289.75
2023-05-14T08:52:46.296Z,101294.09
2023-05-14T08:53:47.148Z,101297.51
2023-05-14T08:54:47.833Z,101300.92
2023-05-14T08:55:48.392Z,101303.53
2023-05-14T08:56:51.744Z,101305.71
2023-05-14T08:57:49.940Z,101307.92
2023-05-14T08:58:51.738Z,101309.67
2023-05-14T08:59:52.473Z,101311.64
2023-05-14T09:00:01.095Z,101330.81
2023-05-14T09:01:01.630Z,101330.39
2023-05-14T09:02:02.315Z,101329.78
2023-05-14T09:03:02.777Z,101329.25
2023-05-14T09:04:03.118Z,101329.21
2023-05-14T09:05:03.261Z,101329.13
2023-05-14T09:06:04.174Z,101329.77
2023-05-14T09:07:04.734Z,101330.34
2023-05-14T09:08:05.424Z,101331.93
2023-05-14T09:09:06.116Z,101333.57
2023-05-14T09:10:06.763Z,101334.36
2023-05-14T09:11:07.526Z,101335.69
2023-05-14T09:12:08.274Z,101337.52
2023-05-14T09:13:09.481Z,101339.36
2023-05-14T09:14:10.370Z,101341.16
2023-05-14T09:15:09.340Z,101344.20
2023-05-14T09:16:09.955Z,101346.35
2023-05-14T09:17:10.536Z,101348.57
2023-05-14T09:18:42.132Z,101394.14
2023-05-14T09:19:47.465Z,101393.45
2023-05-14T09:20:42.256Z,101393.37
2023-05-14T09:21:43.099Z,101393.52
2023-05-14T09:22:43.864Z,101393.89
2023-05-14T09:23:44.794Z,101393.37
2023-05-14T09:24:45.652Z,101393.37
2023-05-14T09:25:46.206Z,101393.01
2023-05-14T09:26:46.882Z,101392.90
2023-05-14T09:27:47.494Z,101393.02
2023-05-14T09:28:48.413Z,101393.52
2023-05-14T09:29:49.010Z,101394.62
2023-05-14T09:30:49.596Z,101395.85
2023-05-14T09:31:50.303Z,101396.59
2023-05-14T09:32:50.846Z,101398.14
2023-05-14T09:33:51.425Z,101399.55
2023-05-14T09:34:52.114Z,101401.00
2023-05-14T09:35:52.892Z,101402.38
2023-05-14T09:36:53.536Z,101403.64
2023-05-14T09:37:54.093Z,101404.98
2023-05-14T09:38:54.681Z,101405.83
2023-05-14T09:39:55.331Z,101406.72
2023-05-14T09:40:56.100Z,101408.28
2023-05-14T09:41:56.735Z,101410.56
2023-05-14T09:42:57.259Z,101412.38
2023-05-14T09:43:57.942Z,101414.88
2023-05-14T09:44:58.509Z,101416.55
2023-05-14T09:46:00.213Z,101419.05
2023-05-14T09:46:59.410Z,101422.44
2023-05-14T09:48:00.250Z,101425.55
2023-05-14T09:48:07.887Z,101463.77
2023-05-14T09:49:08.333Z,101463.59
2023-05-14T09:50:09.296Z,101463.93
2023-05-14T09:51:10.159Z,101465.66
2023-05-14T09:52:11.050Z,101466.39
2023-05-14T09:53:11.637Z,101467.03
2023-05-14T09:54:12.297Z,101467.80
2023-05-14T09:55:12.818Z,101468.60
2023-05-14T09:56:13.473Z,101468.89
2023-05-14T09:57:14.086Z,101470.08
2023-05-14T09:58:14.641Z,101470.98
2023-05-14T09:59:15.268Z,101472.41
2023-05-14T10:00:16.157Z,101473.39
2023-05-14T10:01:16.897Z,101474.97
2023-05-14T10:02:17.491Z,101477.34
2023-05-14T10:03:20.068Z,101480.44
2023-05-14T10:04:18.762Z,101483.56
2023-05-14T10:05:19.290Z,101486.54
2023-05-14T10:06:20.189Z,101488.88
2023-05-14T10:07:20.856Z,101492.15
2023-05-14T10:08:21.469Z,101495.58
2023-05-14T10:09:22.284Z,101498.18
2023-05-14T10:10:23.338Z,101501.41
2023-05-14T10:11:23.599Z,101505.36
2023-05-14T10:12:24.311Z,101508.42
2023-05-14T10:13:24.901Z,101512.12
2023-05-14T10:14:25.528Z,101515.68
2023-05-14T10:15:26.205Z,101519.35
2023-05-14T10:16:26.707Z,101521.80
2023-05-14T10:19:42.807Z,101524.32
2023-05-14T10:20:43.382Z,101527.50
2023-05-14T10:21:43.954Z,101530.08
2023-05-14T10:21:55.661Z,101559.58
2023-05-14T10:22:56.595Z,101559.33
2023-05-14T10:23:57.173Z,101559.67
2023-05-14T10:24:57.773Z,101559.25
2023-05-14T10:25:58.427Z,101559.72
2023-05-14T10:26:58.468Z,101560.13
2023-05-14T10:27:59.038Z,101560.47
2023-05-14T10:28:59.031Z,101561.34
2023-05-14T10:29:59.662Z,101562.88
2023-05-14T10:31:00.763Z,101564.38
2023-05-14T10:32:01.175Z,101565.94
2023-05-14T10:33:01.828Z,101566.35
2023-05-14T10:34:02.337Z,101567.33
2023-05-14T10:35:02.931Z,101567.45
2023-05-14T10:36:03.746Z,101568.40
2023-05-14T10:37:04.250Z,101569.84
2023-05-14T10:38:05.216Z,101570.86
2023-05-14T10:39:05.794Z,101571.92
2023-05-14T10:40:06.546Z,101572.50
2023-05-14T10:41:08.174Z,101573.64
2023-05-14T10:42:07.356Z,101574.17
2023-05-14T10:43:08.136Z,101574.66
2023-05-14T10:44:08.836Z,101575.57
2023-05-14T10:45:09.441Z,101576.77
2023-05-14T10:46:10.076Z,101577.34
2023-05-14T10:47:10.531Z,101578.67
2023-05-14T10:48:22.649Z,101579.85
2023-05-14T10:49:39.681Z,101581.00
2023-05-14T10:50:24.210Z,101582.11
2023-05-14T10:51:24.657Z,101582.20
2023-05-14T10:52:25.197Z,101582.90
2023-05-14T10:53:25.783Z,101582.30
2023-05-14T10:54:26.398Z,101581.97
2023-05-14T10:55:27.115Z,101582.19
2023-05-14T10:55:35.776Z,101601.88
2023-05-14T10:56:36.312Z,101594.19
2023-05-14T10:57:37.229Z,101594.09
2023-05-14T10:58:37.812Z,101594.78
2023-05-14T10:59:38.511Z,101594.96
2023-05-14T11:00:39.238Z,101595.75
2023-05-14T11:01:39.864Z,101596.09
2023-05-14T11:02:40.443Z,101596.01
2023-05-14T11:03:40.973Z,101595.86
2023-05-14T11:04:41.520Z,101595.45
2023-05-14T11:05:42.099Z,101595.17
2023-05-14T11:06:43.662Z,101594.17
2023-05-14T11:07:43.167Z,101594.21
2023-05-14T11:08:43.818Z,101593.77
2023-05-14T11:09:44.128Z,101592.78
2023-05-14T11:10:44.626Z,101592.74
2023-05-14T11:11:45.445Z,101591.27
2023-05-14T11:12:46.103Z,101591.12
2023-05-14T11:13:46.364Z,101590.14
2023-05-14T11:14:46.399Z,101588.30
2023-05-14T11:15:47.204Z,101587.27
2023-05-14T11:16:47.709Z,101586.63
2023-05-14T11:17:48.361Z,101585.58
2023-05-14T11:18:48.399Z,101585.44
2023-05-14T11:19:51.384Z,101584.84
2023-05-14T11:20:49.397Z,101583.98
2023-05-14T11:21:51.033Z,101583.34
2023-05-14T11:22:50.068Z,101582.05
2023-05-14T11:24:36.947Z,101579.22
2023-05-14T11:28:41.292Z,101566.63
2023-05-14T11:29:42.102Z,101566.17
2023-05-14T11:30:37.294Z,101565.65
2023-05-14T11:33:55.505Z,101565.41
2023-05-14T11:34:55.711Z,101564.69
2023-05-14T11:35:56.701Z,101564.77
2023-05-14T11:40:17.638Z,101564.20
2023-05-14T11:41:17.560Z,101564.27
2023-05-14T11:43:19.163Z,101563.06
2023-05-14T11:47:36.773Z,101563.48
2023-05-14T11:52:01.808Z,101563.02
2023-05-14T11:56:31.255Z,101561.84
2023-05-14T11:57:22.323Z,101560.40
2023-05-14T11:58:44.503Z,101558.76
2023-05-14T12:02:43.477Z,101557.39
2023-05-14T12:03:41.397Z,101554.30
2023-05-14T12:12:23.058Z,101549.16
2023-05-14T12:13:21.158Z,101546.25
2023-05-14T12:14:21.535Z,101543.75
2023-05-14T12:15:22.222Z,101541.66
2023-05-14T12:16:22.897Z,101540.08
2023-05-14T12:17:23.019Z,101538.03
2023-05-14T12:18:24.997Z,101536.51
2023-05-14T12:19:41.632Z,101534.62
2023-05-14T12:23:51.072Z,101529.67
2023-05-14T12:24:51.973Z,101527.89
2023-05-14T12:26:43.499Z,101525.66
2023-05-14T12:30:21.933Z,101486.86
2023-05-14T12:31:17.914Z,101486.34
2023-05-14T12:32:18.558Z,101485.91
2023-05-14T12:35:18.005Z,101485.59
2023-05-14T12:38:38.262Z,101486.00
2023-05-14T12:43:05.902Z,101486.35
2023-05-14T12:43:58.367Z,101485.77
2023-05-14T12:48:38.649Z,101485.33
2023-05-14T12:49:17.923Z,101484.64
2023-05-14T12:50:25.745Z,101483.27
2023-05-14T12:52:22.737Z,101482.64
2023-05-14T12:53:01.662Z,101481.91
2023-05-14T12:54:02.222Z,101480.80
2023-05-14T12:58:20.695Z,101479.95
2023-05-14T12:59:22.387Z,101478.50
2023-05-14T13:00:22.357Z,101477.53
2023-05-14T13:01:22.894Z,101477.48
2023-05-14T13:02:23.610Z,101476.59
2023-05-14T13:04:34.935Z,101475.27
2023-05-14T13:08:42.876Z,101474.12
2023-05-14T13:13:10.069Z,101472.94
2023-05-14T13:17:20.307Z,101472.12
2023-05-14T13:21:40.315Z,101470.64
2023-05-14T13:22:38.213Z,101469.35
2023-05-14T13:26:59.245Z,101468.15
2023-05-14T13:28:09.369Z,101466.56
2023-05-14T13:29:01.564Z,101465.48
2023-05-14T13:30:00.220Z,101463.75
2023-05-14T13:31:10.013Z,101462.77
2023-05-14T13:32:03.518Z,101461.20
2023-05-14T13:34:51.093Z,101457.78
2023-05-14T13:35:42.062Z,101455.75
2023-05-14T13:36:06.061Z,101434.92
2023-05-14T13:37:04.116Z,101431.14
2023-05-14T13:38:06.541Z,101430.63
2023-05-14T13:39:04.746Z,101430.81
2023-05-14T13:40:05.789Z,101430.45
2023-05-14T13:41:13.129Z,101429.76
2023-05-14T13:42:11.621Z,101429.34
2023-05-14T13:43:06.932Z,101429.30
2023-05-14T13:44:07.713Z,101429.13
2023-05-14T13:45:08.147Z,101429.41
2023-05-14T13:46:09.067Z,101428.67
2023-05-14T13:47:09.474Z,101428.51
2023-05-14T13:48:09.662Z,101429.14
2023-05-14T13:53:26.420Z,101429.77
2023-05-14T13:56:53.453Z,101431.58
2023-05-14T14:02:05.097Z,101430.56
2023-05-14T14:06:37.519Z,101425.55
2023-05-14T14:10:57.832Z,101418.71
2023-05-14T14:11:50.679Z,101410.80
2023-05-14T14:12:52.722Z,101403.13
2023-05-14T14:14:12.737Z,101396.13
2023-05-14T14:18:16.546Z,101388.98
2023-05-14T14:22:36.474Z,101379.91
2023-05-14T14:23:38.844Z,101369.52
2023-05-14T14:27:57.845Z,101359.08
2023-05-14T14:28:58.539Z,101346.33
2023-05-14T14:30:06.413Z,101333.78
2023-05-14T14:34:17.474Z,101321.15
2023-05-14T14:35:20.634Z,101309.28
2023-05-14T14:36:21.402Z,101298.69
2023-05-14T14:39:47.447Z,101289.77
2023-05-14T14:40:40.150Z,101284.16
2023-05-14T14:41:40.710Z,101279.34
2023-05-14T14:44:08.085Z,101349.17
2023-05-14T14:48:27.341Z,101336.02
2023-05-14T14:49:25.730Z,101337.07
2023-05-14T14:50:26.549Z,101338.83
2023-05-14T14:51:26.844Z,101342.06
2023-05-14T14:52:27.593Z,101345.48
2023-05-14T14:53:28.438Z,101349.42
2023-05-14T14:54:29.139Z,101352.55
2023-05-14T14:55:29.634Z,101355.16
2023-05-14T14:56:29.901Z,101357.70
2023-05-14T14:57:30.232Z,101360.89
2023-05-14T14:58:31.443Z,101363.14
2023-05-14T14:59:31.809Z,101365.55
2023-05-14T15:00:32.435Z,101368.08
2023-05-14T15:01:33.031Z,101370.47
2023-05-14T15:02:33.430Z,101372.34
2023-05-14T15:03:34.153Z,101373.78
2023-05-14T15:04:34.873Z,101374.51
2023-05-14T15:05:35.651Z,101375.14
2023-05-14T15:06:35.682Z,101374.77
2023-05-14T15:07:43.742Z,101374.81
2023-05-14T15:09:36.610Z,101375.15
2023-05-14T15:10:19.407Z,101375.00
2023-05-14T15:11:19.538Z,101375.08
2023-05-14T15:12:22.257Z,101375.94
2023-05-14T15:13:20.749Z,101375.66
2023-05-14T15:14:21.402Z,101376.11
2023-05-14T15:15:22.792Z,101376.75
2023-05-14T15:16:23.299Z,101376.58
2023-05-14T15:18:24.717Z,101376.99
2023-05-14T15:18:45.472Z,101362.56
2023-05-14T15:19:43.683Z,101364.23
2023-05-14T15:20:39.899Z,101364.19
2023-05-14T15:21:37.865Z,101364.53
2023-05-14T15:22:38.527Z,101364.78
2023-05-14T15:30:38.914Z,101364.92
2023-05-14T15:31:39.583Z,101364.61
2023-05-14T15:32:40.510Z,101364.17
2023-05-14T15:33:40.723Z,101364.15
2023-05-14T15:34:36.411Z,101363.66
2023-05-14T15:35:36.569Z,101362.96
2023-05-14T15:36:34.891Z,101363.38
2023-05-14T15:37:42.427Z,101363.00
2023-05-14T15:38:35.309Z,101362.80
2023-05-14T15:39:36.191Z,101362.39
2023-05-14T15:43:54.668Z,101362.28
2023-05-14T15:44:57.162Z,101361.51
2023-05-14T15:46:12.830Z,101361.66
2023-05-14T15:46:56.202Z,101361.11
2023-05-14T15:47:57.037Z,101360.51
2023-05-14T15:49:05.025Z,101360.12
2023-05-14T15:50:49.653Z,101359.95
2023-05-14T15:51:48.831Z,101359.23
2023-05-14T15:52:41.823Z,101359.30
2023-05-14T15:54:00.347Z,101358.87
2023-05-14T15:54:43.418Z,101358.68
2023-05-14T15:59:11.221Z,101358.28
2023-05-14T16:00:11.672Z,101357.33
2023-05-14T16:01:12.320Z,101356.31
2023-05-14T16:03:08.498Z,101355.37
2023-05-14T16:04:32.382Z,101347.66
2023-05-14T16:06:21.920Z,101345.48
2023-05-14T16:07:03.961Z,101345.37
2023-05-14T16:08:06.742Z,101345.50
2023-05-14T16:09:05.239Z,101345.84
2023-05-14T16:10:52.320Z,101345.78
2023-05-14T16:15:13.301Z,101346.06
2023-05-14T16:16:28.481Z,101346.36
2023-05-14T16:17:13.744Z,101346.74
2023-05-14T16:18:19.671Z,101347.66
2023-05-14T16:19:15.181Z,101347.96
2023-05-14T16:20:13.220Z,101348.11
2023-05-14T16:21:55.591Z,101348.98
2023-05-14T16:23:01.388Z,101349.26
2023-05-14T16:24:04.024Z,101349.88
2023-05-14T16:25:03.543Z,101350.55
2023-05-14T16:26:03.072Z,101350.92
2023-05-14T16:27:20.646Z,101351.26
2023-05-14T16:28:24.250Z,101351.80
2023-05-14T16:29:03.705Z,101352.03
2023-05-14T16:30:04.179Z,101351.79
2023-05-14T16:31:04.986Z,101351.72
2023-05-14T16:32:05.609Z,101351.95
2023-05-14T16:33:05.708Z,101352.25
2023-05-14T16:34:05.724Z,101352.67
2023-05-14T16:35:06.595Z,101352.99
2023-05-14T16:36:07.305Z,101352.89
2023-05-14T16:37:07.923Z,101353.23
2023-05-14T16:38:08.392Z,101353.66
2023-05-14T16:39:08.963Z,101354.48
2023-05-14T16:40:09.465Z,101355.02
2023-05-14T16:41:10.012Z,101355.79
2023-05-14T16:42:10.484Z,101355.87
2023-05-14T16:42:19.178Z,101351.92
2023-05-14T16:43:19.227Z,101353.56
2023-05-14T16:44:19.926Z,101353.48
2023-05-14T16:45:20.613Z,101353.78
2023-05-14T16:46:21.197Z,101353.76
2023-05-14T16:47:21.611Z,101353.44
2023-05-14T16:48:22.102Z,101353.23
2023-05-14T16:49:22.748Z,101352.54
2023-05-14T16:50:23.242Z,101352.38
2023-05-14T16:51:24.079Z,101352.49
2023-05-14T16:52:24.876Z,101352.01
2023-05-14T16:53:25.620Z,101351.45
2023-05-14T16:54:26.393Z,101350.70
2023-05-14T16:55:27.250Z,101349.90
2023-05-14T16:56:27.961Z,101349.08
2023-05-14T16:57:28.039Z,101347.74
2023-05-14T16:58:28.231Z,101346.98
2023-05-14T16:59:29.180Z,101346.27
2023-05-14T17:00:29.850Z,101344.83
2023-05-14T17:01:29.955Z,101344.25
2023-05-14T17:02:30.650Z,101343.09
2023-05-14T17:03:31.345Z,101341.97
2023-05-14T17:04:32.272Z,101340.95
2023-05-14T17:05:52.708Z,101328.48
2023-05-14T17:10:10.299Z,101326.52
2023-05-14T17:11:11.243Z,101326.08
2023-05-14T17:12:13.638Z,101325.41
2023-05-14T17:13:11.435Z,101325.30
2023-05-14T17:14:13.994Z,101325.30
2023-05-14T17:15:12.742Z,101325.56